createdAt,value
2023-08-25T00:02:26.677Z,53.30
2023-08-25T00:04:54.215Z,49.83
2023-08-25T00:07:21.303Z,48.92
2023-08-25T00:09:49.436Z,53.10
2023-08-25T00:12:17.846Z,47.80
2023-08-25T00:14:44.986Z,52.05
2023-08-25T00:17:12.853Z,49.05
2023-08-25T00:19:40.396Z,52.55
2023-08-25T00:22:07.686Z,50.88
2023-08-25T00:24:34.829Z,52.20
2023-08-25T00:27:01.958Z,50.97
2023-08-25T00:29:29.154Z,49.33
2023-08-25T00:31:56.700Z,49.05
2023-08-25T00:34:23.816Z,50.70
2023-08-25T00:36:50.983Z,54.40
2023-08-25T00:39:18.116Z,56.33
2023-08-25T00:41:45.405Z,54.47
2023-08-25T00:44:12.901Z,61.03
2023-08-25T00:46:40.257Z,55.40
2023-08-25T00:49:09.355Z,64.63
2023-08-25T00:51:36.679Z,66.50
2023-08-25T00:54:05.062Z,70.68
2023-08-25T00:56:33.550Z,74.43
2023-08-25T00:59:00.997Z,73.13
2023-08-25T01:01:28.602Z,75.18
2023-08-25T01:03:57.774Z,78.03
2023-08-25T01:06:25.443Z,78.53
2023-08-25T01:08:52.758Z,83.75
2023-08-25T01:11:37.957Z,82.43
2023-08-25T01:14:47.815Z,88.78
2023-08-25T01:17:46.920Z,83.63
2023-08-25T01:20:16.653Z,89.82
2023-08-25T01:23:23.034Z,83.07
2023-08-25T01:25:54.398Z,92.32
2023-08-25T01:28:24.842Z,81.90
2023-08-25T01:30:56.117Z,91.70
2023-08-25T01:33:26.595Z,90.63
2023-08-25T01:36:21.555Z,97.70
2023-08-25T01:38:56.122Z,94.38
2023-08-25T01:41:46.657Z,92.47
2023-08-25T01:44:16.538Z,99.82
2023-08-25T01:46:52.283Z,101.30
2023-08-25T01:49:22.129Z,100.90
2023-08-25T01:51:49.376Z,102.10
2023-08-25T01:54:16.541Z,102.82
2023-08-25T01:56:43.681Z,100.95
2023-08-25T01:59:10.898Z,90.90
2023-08-25T02:01:38.351Z,99.47
2023-08-25T02:04:06.964Z,92.32
2023-08-25T02:06:35.104Z,91.97
2023-08-25T02:09:02.199Z,95.93
2023-08-25T02:11:29.281Z,89.93
2023-08-25T02:13:56.578Z,89.88
2023-08-25T02:16:23.773Z,93.03
2023-08-25T02:18:50.878Z,80.85
2023-08-25T02:21:18.437Z,80.20
2023-08-25T02:23:45.551Z,86.80
2023-08-25T02:26:16.017Z,90.20
2023-08-25T02:28:43.144Z,80.20
2023-08-25T02:31:10.215Z,78.72
2023-08-25T02:33:37.634Z,80.30
2023-08-25T02:36:05.187Z,78.78
2023-08-25T02:38:32.978Z,79.72
2023-08-25T02:41:00.173Z,82.32
2023-08-25T02:43:27.308Z,69.18
2023-08-25T02:45:54.420Z,73.75
2023-08-25T02:48:21.611Z,73.45
2023-08-25T02:50:48.722Z,74.25
2023-08-25T02:53:15.936Z,69.53
2023-08-25T02:55:42.999Z,72.22
2023-08-25T02:58:10.292Z,70.40
2023-08-25T03:00:37.465Z,66.38
2023-08-25T03:03:05.155Z,65.18
2023-08-25T03:05:32.344Z,71.88
2023-08-25T03:07:59.464Z,70.85
2023-08-25T03:10:27.069Z,79.43
2023-08-25T03:12:55.679Z,68.03
2023-08-25T03:15:23.737Z,71.90
2023-08-25T03:17:51.054Z,71.75
2023-08-25T03:20:18.741Z,76.60
2023-08-25T03:22:46.175Z,64.70
2023-08-25T03:25:13.442Z,62.00
2023-08-25T03:27:40.746Z,61.90
2023-08-25T03:30:08.657Z,65.32
2023-08-25T03:32:35.818Z,73.10
2023-08-25T03:35:03.272Z,64.90
2023-08-25T03:37:31.403Z,59.03
2023-08-25T03:39:58.556Z,62.85
2023-08-25T03:42:27.089Z,63.00
2023-08-25T03:44:54.240Z,72.05
2023-08-25T03:47:21.566Z,63.53
2023-08-25T03:49:51.266Z,58.30
2023-08-25T03:52:18.447Z,64.70
2023-08-25T03:54:45.640Z,55.85
2023-08-25T03:57:12.846Z,58.17
2023-08-25T03:59:40.056Z,51.88
2023-08-25T04:02:07.239Z,47.88
2023-08-25T04:04:34.332Z,48.85
2023-08-25T04:07:01.435Z,45.45
2023-08-25T04:09:28.796Z,46.22
2023-08-25T04:11:58.636Z,43.78
2023-08-25T04:14:26.084Z,41.83
2023-08-25T04:16:53.566Z,43.50
2023-08-25T04:19:22.735Z,41.72
2023-08-25T04:21:51.483Z,45.97
2023-08-25T04:24:20.049Z,49.20
2023-08-25T04:26:47.230Z,48.10
2023-08-25T04:29:14.438Z,46.65
2023-08-25T04:31:42.200Z,49.58
2023-08-25T04:34:13.799Z,49.20
2023-08-25T04:36:41.116Z,52.17
2023-08-25T04:39:09.079Z,50.97
2023-08-25T04:41:38.161Z,57.45
2023-08-25T04:44:05.484Z,49.17
2023-08-25T04:46:34.144Z,39.80
2023-08-25T04:49:01.567Z,38.50
2023-08-25T04:51:29.125Z,33.85
2023-08-25T04:53:56.538Z,33.50
2023-08-25T04:56:24.017Z,30.85
2023-08-25T04:58:52.976Z,29.92
2023-08-25T05:01:21.149Z,28.90
2023-08-25T05:03:50.000Z,32.15
2023-08-25T05:06:18.767Z,27.40
2023-08-25T05:08:46.443Z,27.08
2023-08-25T05:11:13.805Z,27.35
2023-08-25T05:13:41.153Z,28.70
2023-08-25T05:16:10.993Z,23.98
2023-08-25T05:18:48.899Z,26.48
2023-08-25T05:21:16.693Z,21.48
2023-08-25T05:23:48.344Z,23.10
2023-08-25T05:26:16.849Z,22.83
2023-08-25T05:28:53.598Z,23.98
2023-08-25T05:31:20.956Z,22.90
2023-08-25T05:34:04.750Z,21.52
2023-08-25T05:36:40.984Z,22.40
2023-08-25T05:39:09.159Z,23.10
2023-08-25T05:41:37.314Z,22.50
2023-08-25T05:44:09.879Z,23.52
2023-08-25T05:46:37.345Z,27.45
2023-08-25T05:49:04.824Z,26.58
2023-08-25T05:51:35.344Z,30.70
2023-08-25T05:54:02.971Z,31.70
2023-08-25T05:56:31.343Z,27.35
2023-08-25T05:59:01.684Z,28.38
2023-08-25T06:01:33.156Z,26.00
2023-08-25T06:04:05.302Z,30.33
2023-08-25T06:06:33.682Z,30.25
2023-08-25T06:09:03.009Z,35.20
2023-08-25T06:11:32.365Z,36.33
2023-08-25T06:13:59.510Z,36.83
2023-08-25T06:16:27.973Z,38.03
2023-08-25T06:18:55.876Z,37.85
2023-08-25T06:21:23.366Z,42.75
2023-08-25T06:23:50.460Z,43.92
2023-08-25T06:26:18.603Z,41.60
2023-08-25T06:28:45.659Z,42.65
2023-08-25T06:31:13.441Z,41.03
2023-08-25T06:33:41.175Z,40.53
2023-08-25T06:36:09.049Z,40.65
2023-08-25T06:38:46.331Z,44.00
2023-08-25T06:41:21.568Z,42.55
2023-08-25T06:43:48.904Z,41.70
2023-08-25T06:46:16.077Z,38.38
2023-08-25T06:48:43.346Z,38.85
2023-08-25T06:51:10.593Z,34.55
2023-08-25T06:53:37.720Z,30.73
2023-08-25T06:56:05.117Z,30.52
2023-08-25T06:58:32.194Z,31.98
2023-08-25T07:00:59.443Z,32.08
2023-08-25T07:03:26.573Z,28.70
2023-08-25T07:06:01.049Z,27.45
2023-08-25T07:08:28.234Z,26.23
2023-08-25T07:10:55.421Z,26.60
2023-08-25T07:13:22.692Z,26.08
2023-08-25T07:15:51.312Z,26.08
2023-08-25T07:18:19.091Z,28.05
2023-08-25T07:20:46.235Z,26.50
2023-08-25T07:23:13.334Z,26.33
2023-08-25T07:25:44.801Z,26.35
2023-08-25T07:28:12.524Z,23.30
2023-08-25T07:30:40.193Z,26.98
2023-08-25T07:33:08.578Z,23.90
2023-08-25T07:35:36.684Z,24.40
2023-08-25T07:38:04.929Z,26.05
2023-08-25T07:40:35.450Z,27.13
2023-08-25T07:43:03.212Z,25.55
2023-08-25T07:45:32.308Z,26.65
2023-08-25T07:48:01.400Z,25.80
2023-08-25T07:50:30.771Z,26.00
2023-08-25T07:52:59.822Z,26.80
2023-08-25T07:55:27.831Z,24.20
2023-08-25T07:57:55.446Z,23.75
2023-08-25T08:00:23.271Z,25.08
2023-08-25T08:02:51.560Z,24.77
2023-08-25T08:05:19.582Z,24.48
2023-08-25T08:07:49.298Z,25.52
2023-08-25T08:10:19.054Z,24.40
2023-08-25T08:12:47.737Z,25.15
2023-08-25T08:15:15.722Z,23.83
2023-08-25T08:17:43.192Z,23.75
2023-08-25T08:20:14.550Z,21.92
2023-08-25T08:22:43.362Z,23.63
2023-08-25T08:25:12.346Z,22.50
2023-08-25T08:27:42.043Z,21.73
2023-08-25T08:30:11.284Z,20.38
2023-08-25T08:32:40.170Z,22.05
2023-08-25T08:35:11.453Z,22.33
2023-08-25T08:37:40.099Z,21.67
2023-08-25T08:40:10.604Z,20.95
2023-08-25T08:42:39.132Z,20.02
2023-08-25T08:45:12.158Z,23.38
2023-08-25T08:47:40.529Z,22.48
2023-08-25T08:50:09.540Z,22.10
2023-08-25T08:52:37.029Z,19.55
2023-08-25T08:55:08.892Z,21.45
2023-08-25T08:57:36.112Z,21.48
2023-08-25T09:00:09.311Z,23.38
2023-08-25T09:02:37.128Z,21.00
2023-08-25T09:05:06.925Z,21.35
2023-08-25T09:07:34.878Z,21.92
2023-08-25T09:10:02.313Z,21.98
2023-08-25T09:12:30.793Z,21.58
2023-08-25T09:14:58.135Z,21.38
2023-08-25T09:17:25.384Z,20.25
2023-08-25T09:19:52.723Z,19.73
2023-08-25T09:22:20.574Z,20.52
2023-08-25T09:24:47.849Z,19.88
2023-08-25T09:27:28.490Z,20.90
2023-08-25T09:30:07.976Z,19.50
2023-08-25T09:32:35.782Z,22.70
2023-08-25T09:35:19.628Z,18.33
2023-08-25T09:37:46.728Z,17.25
2023-08-25T09:40:15.947Z,18.20
2023-08-25T09:42:43.434Z,18.02
2023-08-25T09:45:12.558Z,17.80
2023-08-25T09:47:42.374Z,16.23
2023-08-25T09:55:22.501Z,15.40
2023-08-25T09:57:50.399Z,17.20
2023-08-25T10:00:18.520Z,16.33
2023-08-25T10:02:46.655Z,19.05
2023-08-25T10:05:15.473Z,17.90
2023-08-25T10:07:44.524Z,17.15
2023-08-25T10:10:12.173Z,15.73
2023-08-25T10:12:44.724Z,15.63
2023-08-25T10:15:15.154Z,16.35
2023-08-25T10:17:44.114Z,14.20
2023-08-25T10:20:16.606Z,14.60
2023-08-25T10:22:50.698Z,15.48
2023-08-25T10:25:20.147Z,13.32
2023-08-25T10:27:48.201Z,12.85
2023-08-25T10:30:15.879Z,12.88
2023-08-25T10:33:10.407Z,12.48
2023-08-25T10:35:41.022Z,13.00
2023-08-25T10:38:35.841Z,13.13
2023-08-25T10:41:16.304Z,12.35
2023-08-25T10:43:50.963Z,13.65
2023-08-25T10:46:26.418Z,13.43
2023-08-25T10:49:11.176Z,12.40
2023-08-25T10:51:41.821Z,12.85
2023-08-25T10:54:21.626Z,10.95
2023-08-25T10:56:50.882Z,10.15
2023-08-25T10:59:18.115Z,10.55
2023-08-25T11:02:03.571Z,10.88
2023-08-25T11:04:31.643Z,10.73
2023-08-25T11:07:00.645Z,10.73
2023-08-25T11:09:27.687Z,9.13
2023-08-25T11:12:06.164Z,10.07
2023-08-25T11:14:39.966Z,11.25
2023-08-25T11:17:09.843Z,10.43
2023-08-25T11:19:39.363Z,11.48
2023-08-25T11:22:10.274Z,11.35
2023-08-25T11:24:37.473Z,11.48
2023-08-25T11:27:10.672Z,11.10
2023-08-25T11:29:45.812Z,10.85
2023-08-25T11:32:13.738Z,10.73
2023-08-25T11:34:41.103Z,10.57
2023-08-25T11:37:14.179Z,13.13
2023-08-25T11:39:45.659Z,12.00
2023-08-25T11:42:13.251Z,11.10
2023-08-25T11:44:44.515Z,12.57
2023-08-25T11:47:12.046Z,12.50
2023-08-25T11:49:41.094Z,14.18
2023-08-25T11:52:09.146Z,12.90
2023-08-25T11:54:50.141Z,14.50
2023-08-25T11:57:17.539Z,13.07
2023-08-25T11:59:48.700Z,12.57
2023-08-25T12:02:17.326Z,11.88
2023-08-25T12:04:59.650Z,13.85
2023-08-25T12:07:30.305Z,13.20
2023-08-25T12:10:05.264Z,12.60
2023-08-25T12:12:38.796Z,13.95
2023-08-25T12:15:10.062Z,13.98
2023-08-25T12:17:38.877Z,13.80
2023-08-25T12:20:15.077Z,12.98
2023-08-25T12:22:55.230Z,11.70
2023-08-25T12:25:22.481Z,10.65
2023-08-25T12:27:51.251Z,10.38
2023-08-25T12:30:18.829Z,10.48
2023-08-25T12:32:46.000Z,9.00
2023-08-25T12:35:13.317Z,9.07
2023-08-25T12:37:40.462Z,8.90
2023-08-25T12:40:08.757Z,8.40
2023-08-25T12:42:36.878Z,9.43
2023-08-25T12:45:04.702Z,9.70
2023-08-25T12:47:31.850Z,9.98
2023-08-25T12:49:58.969Z,10.70
2023-08-25T12:52:27.999Z,9.85
2023-08-25T12:55:00.778Z,9.25
2023-08-25T12:57:34.759Z,10.13
2023-08-25T13:00:03.378Z,10.63
2023-08-25T13:02:30.533Z,11.23
2023-08-25T13:04:57.646Z,10.30
2023-08-25T13:07:24.786Z,10.40
2023-08-25T13:09:51.907Z,11.35
2023-08-25T13:12:19.134Z,11.65
2023-08-25T13:14:46.211Z,10.63
2023-08-25T13:17:13.305Z,11.55
2023-08-25T13:19:40.511Z,10.45
2023-08-25T13:22:08.101Z,10.82
2023-08-25T13:24:35.189Z,10.60
2023-08-25T13:27:02.341Z,11.10
2023-08-25T13:29:29.560Z,10.57
2023-08-25T13:31:57.276Z,10.27
2023-08-25T13:34:24.504Z,11.35
2023-08-25T13:36:51.566Z,9.18
2023-08-25T13:39:18.689Z,8.77
2023-08-25T13:41:45.832Z,8.57
2023-08-25T13:44:12.970Z,8.68
2023-08-25T13:46:40.060Z,8.68
2023-08-25T13:49:07.176Z,9.73
2023-08-25T13:51:34.348Z,10.02
2023-08-25T13:54:03.551Z,9.15
2023-08-25T13:56:31.139Z,7.78
2023-08-25T13:59:00.353Z,7.28
2023-08-25T14:01:27.475Z,6.63
2023-08-25T14:03:54.774Z,7.72
2023-08-25T14:06:21.926Z,8.13
2023-08-25T14:08:49.237Z,7.18
2023-08-25T14:11:16.357Z,6.80
2023-08-25T14:13:43.491Z,7.28
2023-08-25T14:16:10.724Z,8.50
2023-08-25T14:18:37.869Z,7.78
2023-08-25T14:21:04.973Z,8.18
2023-08-25T14:23:32.239Z,8.10
2023-08-25T14:25:59.992Z,8.23
2023-08-25T14:28:27.531Z,8.38
2023-08-25T14:30:54.648Z,7.28
2023-08-25T14:33:23.397Z,6.78
2023-08-25T14:35:50.652Z,6.20
2023-08-25T14:38:17.792Z,6.90
2023-08-25T14:40:47.980Z,8.82
2023-08-25T14:43:15.156Z,8.55
2023-08-25T14:45:42.326Z,6.10
2023-08-25T14:48:09.604Z,7.25
2023-08-25T14:50:36.798Z,7.05
2023-08-25T14:53:05.006Z,7.65
2023-08-25T14:55:32.141Z,7.10
2023-08-25T14:57:59.276Z,7.85
2023-08-25T15:00:26.591Z,7.30
2023-08-25T15:02:53.807Z,6.30
2023-08-25T15:05:21.027Z,7.47
2023-08-25T15:07:48.190Z,7.18
2023-08-25T15:10:15.377Z,5.38
2023-08-25T15:12:42.474Z,7.15
2023-08-25T15:15:09.966Z,6.50
2023-08-25T15:17:37.188Z,8.50
2023-08-25T15:20:04.979Z,6.70
2023-08-25T15:22:32.069Z,6.35
2023-08-25T15:24:59.267Z,6.97
2023-08-25T15:27:26.423Z,7.20
2023-08-25T15:29:53.544Z,7.53
2023-08-25T15:32:20.637Z,6.20
2023-08-25T15:34:49.060Z,6.38
2023-08-25T15:37:16.178Z,7.05
2023-08-25T15:39:43.375Z,7.10
2023-08-25T15:42:10.505Z,7.80
2023-08-25T15:44:37.604Z,7.18
2023-08-25T15:47:05.065Z,6.63
2023-08-25T15:49:34.429Z,6.00
2023-08-25T15:52:01.620Z,7.28
2023-08-25T15:54:28.811Z,6.07
2023-08-25T15:56:55.987Z,6.22
2023-08-25T15:59:23.164Z,7.10
2023-08-25T16:01:50.361Z,7.40
2023-08-25T16:04:17.531Z,8.40
2023-08-25T16:06:44.781Z,6.00
2023-08-25T16:09:11.935Z,7.47
2023-08-25T16:11:39.189Z,6.63
2023-08-25T16:14:06.460Z,7.28
2023-08-25T16:16:37.137Z,5.05
2023-08-25T16:19:04.492Z,5.32
2023-08-25T16:21:32.707Z,5.05
2023-08-25T16:23:59.834Z,5.72
2023-08-25T16:26:27.662Z,5.80
2023-08-25T16:28:54.827Z,6.13
2023-08-25T16:31:22.251Z,5.78
2023-08-25T16:33:49.517Z,5.35
2023-08-25T16:36:16.674Z,6.03
2023-08-25T16:38:44.040Z,6.28
2023-08-25T16:41:11.325Z,5.45
2023-08-25T16:43:38.507Z,5.88
2023-08-25T16:46:05.671Z,6.00
2023-08-25T16:48:32.892Z,5.70
2023-08-25T16:51:00.144Z,6.30
2023-08-25T16:53:27.270Z,6.70
2023-08-25T16:55:57.448Z,6.03
2023-08-25T16:58:27.106Z,7.53
2023-08-25T17:00:55.107Z,7.70
2023-08-25T17:03:22.419Z,7.70
2023-08-25T17:05:49.970Z,8.30
2023-08-25T17:08:19.218Z,6.53
2023-08-25T17:10:46.453Z,7.43
2023-08-25T17:13:13.625Z,6.72
2023-08-25T17:15:41.379Z,7.10
2023-08-25T17:18:08.698Z,7.72
2023-08-25T17:20:35.851Z,6.72
2023-08-25T17:23:03.670Z,6.63
2023-08-25T17:25:31.581Z,6.45
2023-08-25T17:27:59.250Z,5.78
2023-08-25T17:30:26.716Z,7.05
2023-08-25T17:32:54.294Z,6.97
2023-08-25T17:35:21.917Z,6.63
2023-08-25T17:37:49.351Z,7.40
2023-08-25T17:40:16.536Z,7.07
2023-08-25T17:42:43.671Z,6.55
2023-08-25T17:45:11.020Z,6.03
2023-08-25T17:47:38.274Z,5.25
2023-08-25T17:50:06.135Z,6.50
2023-08-25T17:52:33.290Z,6.03
2023-08-25T17:55:02.866Z,5.78
2023-08-25T17:57:31.893Z,5.78
2023-08-25T17:59:59.664Z,5.55
2023-08-25T18:02:27.292Z,5.30
2023-08-25T18:04:54.922Z,5.95
2023-08-25T18:07:22.029Z,5.70
2023-08-25T18:09:49.203Z,5.65
2023-08-25T18:12:16.339Z,4.57
2023-08-25T18:14:43.640Z,5.70
2023-08-25T18:17:10.798Z,5.85
2023-08-25T18:19:37.980Z,5.43
2023-08-25T18:22:07.097Z,5.18
2023-08-25T18:24:35.336Z,4.40
2023-08-25T18:27:02.503Z,5.50
2023-08-25T18:29:30.387Z,5.15
2023-08-25T18:31:59.924Z,4.88
2023-08-25T18:34:28.051Z,5.80
2023-08-25T18:36:55.198Z,4.55
2023-08-25T18:39:22.330Z,5.40
2023-08-25T18:41:49.509Z,4.78
2023-08-25T18:44:16.712Z,5.68
2023-08-25T18:46:43.855Z,4.38
2023-08-25T18:49:11.924Z,3.85
2023-08-25T18:51:39.235Z,4.60
2023-08-25T18:54:06.456Z,4.10
2023-08-25T18:56:34.536Z,4.40
2023-08-25T18:59:01.699Z,3.53
2023-08-25T19:01:28.851Z,4.38
2023-08-25T19:03:56.033Z,4.68
2023-08-25T19:06:23.177Z,4.20
2023-08-25T19:08:50.327Z,4.20
2023-08-25T19:11:17.487Z,4.55
2023-08-25T19:13:45.265Z,3.42
2023-08-25T19:16:12.664Z,4.25
2023-08-25T19:18:39.872Z,3.92
2023-08-25T19:21:08.484Z,3.17
2023-08-25T19:23:36.091Z,3.47
2023-08-25T19:26:09.233Z,4.10
2023-08-25T19:28:38.312Z,3.80
2023-08-25T19:31:06.818Z,3.55
2023-08-25T19:33:34.132Z,4.22
2023-08-25T19:36:01.511Z,4.05
2023-08-25T19:38:28.788Z,3.92
2023-08-25T19:40:56.218Z,4.07
2023-08-25T19:43:23.387Z,3.50
2023-08-25T19:45:51.328Z,3.45
2023-08-25T19:48:19.208Z,3.83
2023-08-25T19:50:58.145Z,3.85
2023-08-25T19:53:25.477Z,4.18
2023-08-25T19:55:52.872Z,3.65
2023-08-25T19:58:20.049Z,3.50
2023-08-25T20:00:47.207Z,3.55
2023-08-25T20:03:18.433Z,3.60
2023-08-25T20:05:59.940Z,3.57
2023-08-25T20:08:28.549Z,3.83
2023-08-25T20:10:56.309Z,3.78
2023-08-25T20:13:23.457Z,2.90
2023-08-25T20:15:51.074Z,3.97
2023-08-25T20:18:21.132Z,3.13
2023-08-25T20:20:49.920Z,3.53
2023-08-25T20:23:17.950Z,4.25
2023-08-25T20:25:49.024Z,3.92
2023-08-25T20:28:17.094Z,3.92
2023-08-25T20:30:48.454Z,3.50
2023-08-25T20:33:17.673Z,2.70
2023-08-25T20:35:46.040Z,2.97
2023-08-25T20:38:14.856Z,2.63
2023-08-25T20:40:43.944Z,2.85
2023-08-25T20:43:14.301Z,3.25
2023-08-25T20:45:48.595Z,3.53
2023-08-25T20:48:18.889Z,3.13
2023-08-25T20:50:49.425Z,3.58
2023-08-25T20:53:16.626Z,3.70
2023-08-25T20:55:43.957Z,3.92
2023-08-25T20:58:11.233Z,3.60
2023-08-25T21:00:38.328Z,3.70
2023-08-25T21:03:05.781Z,3.55
2023-08-25T21:05:33.018Z,4.28
2023-08-25T21:08:00.119Z,4.07
2023-08-25T21:10:29.408Z,4.22
2023-08-25T21:12:56.828Z,4.13
2023-08-25T21:15:24.205Z,4.35
2023-08-25T21:17:51.442Z,3.70
2023-08-25T21:20:21.210Z,3.38
2023-08-25T21:22:48.396Z,2.85
2023-08-25T21:25:15.758Z,2.92
2023-08-25T21:27:42.921Z,4.68
2023-08-25T21:30:11.119Z,4.30
2023-08-25T21:32:40.321Z,4.20
2023-08-25T21:35:09.026Z,4.38
2023-08-25T21:37:36.213Z,4.97
2023-08-25T21:40:03.880Z,4.82
2023-08-25T21:42:31.081Z,4.75
2023-08-25T21:44:58.210Z,4.00
2023-08-25T21:47:25.405Z,4.47
2023-08-25T21:49:52.622Z,4.50
2023-08-25T21:52:19.807Z,4.85
2023-08-25T21:54:47.249Z,5.45
2023-08-25T21:57:14.322Z,5.45
2023-08-25T21:59:41.462Z,5.40
2023-08-25T22:02:08.704Z,5.47
2023-08-25T22:04:37.984Z,6.20
2023-08-25T22:07:05.324Z,5.65
2023-08-25T22:09:32.545Z,5.75
2023-08-25T22:12:00.857Z,5.10
2023-08-25T22:14:29.296Z,6.13
2023-08-25T22:16:56.556Z,6.20
2023-08-25T22:19:23.768Z,6.07
2023-08-25T22:21:50.836Z,5.38
2023-08-25T22:24:18.005Z,5.68
2023-08-25T22:26:45.166Z,6.07
2023-08-25T22:29:12.872Z,6.45
2023-08-25T22:31:43.844Z,6.75
2023-08-25T22:36:42.449Z,5.93
2023-08-25T22:39:10.772Z,6.32
2023-08-25T22:41:38.141Z,6.18
2023-08-25T22:44:06.067Z,6.57
2023-08-25T22:46:33.216Z,5.57
2023-08-25T22:49:00.880Z,5.50
2023-08-25T22:51:28.135Z,6.13
2023-08-25T22:53:56.166Z,5.15
2023-08-25T22:56:23.876Z,5.30
2023-08-25T22:58:51.949Z,5.30
2023-08-25T23:01:21.977Z,5.13
2023-08-25T23:03:49.702Z,5.65
2023-08-25T23:06:17.600Z,5.38
2023-08-25T23:08:45.048Z,5.05
2023-08-25T23:11:13.733Z,4.18
2023-08-25T23:13:41.192Z,4.63
2023-08-25T23:16:10.655Z,3.92
2023-08-25T23:18:39.697Z,3.63
2023-08-25T23:21:07.093Z,4.03
2023-08-25T23:23:34.197Z,3.40
2023-08-25T23:26:01.397Z,3.13
2023-08-25T23:28:28.722Z,3.35
2023-08-25T23:30:58.356Z,2.65
2023-08-25T23:33:26.725Z,2.30
2023-08-25T23:35:53.935Z,2.85
2023-08-25T23:38:21.330Z,2.90
2023-08-25T23:40:55.480Z,3.25
2023-08-25T23:43:24.344Z,2.28
2023-08-25T23:45:58.604Z,2.75
2023-08-25T23:48:26.564Z,2.15
2023-08-25T23:50:53.693Z,2.45
2023-08-25T23:53:20.949Z,2.55
2023-08-25T23:55:48.040Z,2.00
2023-08-25T23:58:15.692Z,2.42
